createdAt,value
2019-01-12T00:00:54.549Z,49.5
2019-01-12T00:01:54.561Z,48.7
2019-01-12T00:02:54.555Z,48
2019-01-12T00:03:54.604Z,47.3
2019-01-12T00:04:54.536Z,47
2019-01-12T00:05:54.609Z,46.4
2019-01-12T00:06:54.648Z,45.9
2019-01-12T00:07:54.555Z,45.5
2019-01-12T00:08:54.538Z,44.6
2019-01-12T00:09:54.541Z,43.9
2019-01-12T00:10:54.557Z,42.5
2019-01-12T00:11:54.617Z,41.6
2019-01-12T00:12:54.542Z,41
2019-01-12T00:13:54.625Z,41
2019-01-12T00:14:54.538Z,40.7
2019-01-12T00:15:54.531Z,40
2019-01-12T00:16:54.604Z,39.2
2019-01-12T00:17:54.567Z,39.5
2019-01-12T00:18:54.598Z,39.8
2019-01-12T00:19:54.542Z,39.6
2019-01-12T00:20:54.520Z,39.5
2019-01-12T00:21:54.521Z,39.4
2019-01-12T00:22:54.524Z,39.6
2019-01-12T00:23:54.600Z,39.8
2019-01-12T00:24:54.729Z,40.8
2019-01-12T00:25:54.517Z,41.2
2019-01-12T00:26:54.542Z,41.5
2019-01-12T00:27:54.545Z,41.7
2019-01-12T00:28:54.529Z,42.8
2019-01-12T00:29:54.598Z,42.8
2019-01-12T00:30:54.600Z,42.4
2019-01-12T00:31:54.522Z,43.1
2019-01-12T00:32:54.525Z,43.9
2019-01-12T00:33:54.515Z,44.1
2019-01-12T00:34:54.526Z,44
2019-01-12T00:35:54.608Z,43.7
2019-01-12T00:36:54.528Z,43.9
2019-01-12T00:37:54.502Z,43.8
2019-01-12T00:38:54.523Z,43.5
2019-01-12T00:39:54.528Z,43.4
2019-01-12T00:40:54.652Z,43.6
2019-01-12T00:41:54.512Z,43.6
2019-01-12T00:42:54.534Z,43.3
2019-01-12T00:43:55.782Z,42.8
2019-01-12T00:44:54.518Z,41.5
2019-01-12T00:45:54.536Z,39.8
2019-01-12T00:46:54.527Z,37.9
2019-01-12T00:47:54.523Z,37.4
2019-01-12T00:48:54.579Z,37.1
2019-01-12T00:49:54.534Z,36.3
2019-01-12T00:50:54.600Z,36.2
2019-01-12T00:51:54.607Z,37.5
2019-01-12T00:52:54.533Z,36.8
2019-01-12T00:53:54.555Z,36.2
2019-01-12T00:54:54.536Z,37
2019-01-12T00:55:54.526Z,37
2019-01-12T00:56:54.585Z,37.7
2019-01-12T00:57:54.505Z,37.8
2019-01-12T00:58:54.521Z,37.7
2019-01-12T00:59:54.580Z,37.6
2019-01-12T01:00:54.501Z,37.7
2019-01-12T01:01:54.528Z,37.7
2019-01-12T01:02:54.558Z,37.9
2019-01-12T01:03:54.569Z,38.3
2019-01-12T01:04:54.496Z,38.5
2019-01-12T01:05:54.523Z,39.9
2019-01-12T01:06:54.521Z,40.9
2019-01-12T01:07:54.527Z,41.8
2019-01-12T01:08:54.576Z,42.5
2019-01-12T01:09:54.561Z,43
2019-01-12T01:10:54.497Z,43
2019-01-12T01:11:54.505Z,43.4
2019-01-12T01:12:54.524Z,44
2019-01-12T01:13:54.584Z,44.3
2019-01-12T01:14:54.509Z,44.7
2019-01-12T01:15:54.518Z,44.8
2019-01-12T01:16:54.529Z,44.8
2019-01-12T01:17:54.504Z,45.5
2019-01-12T01:18:54.553Z,45.4
2019-01-12T01:19:54.500Z,44.9
2019-01-12T01:20:54.482Z,44.1
2019-01-12T01:21:54.517Z,43.7
2019-01-12T01:22:54.494Z,43.9
2019-01-12T01:23:54.547Z,43.2
2019-01-12T01:24:54.498Z,44.1
2019-01-12T01:25:54.561Z,44.8
2019-01-12T01:26:54.564Z,45.7
2019-01-12T01:27:54.514Z,47.7
2019-01-12T01:28:54.513Z,48
2019-01-12T01:29:54.580Z,47.9
2019-01-12T01:30:54.512Z,47.9
2019-01-12T01:31:54.547Z,48.7
2019-01-12T01:32:54.488Z,48.1
2019-01-12T01:33:54.515Z,47.4
2019-01-12T01:34:54.580Z,46.3
2019-01-12T01:35:54.508Z,45.9
2019-01-12T01:36:54.478Z,45.2
2019-01-12T01:37:54.539Z,44.6
2019-01-12T01:38:54.562Z,44.3
2019-01-12T01:39:54.526Z,43.7
2019-01-12T01:40:54.554Z,44
2019-01-12T01:41:54.493Z,45.2
2019-01-12T01:42:54.464Z,44.9
2019-01-12T01:43:54.504Z,44.8
2019-01-12T01:44:54.495Z,44.7
2019-01-12T01:45:54.542Z,44.5
2019-01-12T01:46:54.559Z,43.2
2019-01-12T01:47:54.493Z,43.3
2019-01-12T01:48:54.507Z,43.2
2019-01-12T01:49:54.580Z,43.3
2019-01-12T01:50:54.580Z,43.1
2019-01-12T01:51:54.529Z,43.5
2019-01-12T01:52:54.483Z,43
2019-01-12T01:53:54.469Z,43.9
2019-01-12T01:54:54.609Z,44
2019-01-12T01:55:54.490Z,44.9
2019-01-12T01:56:54.487Z,45
2019-01-12T01:57:54.479Z,44.4
2019-01-12T01:58:54.555Z,44.4
2019-01-12T01:59:54.557Z,43.4
2019-01-12T02:00:54.572Z,43.1
2019-01-12T02:01:54.475Z,42.4
2019-01-12T02:02:54.495Z,43.5
2019-01-12T02:03:54.501Z,43.8
2019-01-12T02:04:54.485Z,43.9
2019-01-12T02:05:54.558Z,44.6
2019-01-12T02:06:54.481Z,44.9
2019-01-12T02:07:54.495Z,46.1
2019-01-12T02:08:54.480Z,45.9
2019-01-12T02:09:54.486Z,45.5
2019-01-12T02:10:54.477Z,46
2019-01-12T02:11:54.484Z,45.9
2019-01-12T02:12:54.497Z,45.8
2019-01-12T02:13:54.473Z,45.7
2019-01-12T02:14:54.483Z,44.9
2019-01-12T02:15:54.474Z,44.1
2019-01-12T02:16:54.555Z,43.7
2019-01-12T02:17:54.493Z,42.4
2019-01-12T02:18:54.479Z,41
2019-01-12T02:19:54.472Z,40.7
2019-01-12T02:20:54.528Z,40.3
2019-01-12T02:21:54.470Z,40.7
2019-01-12T02:22:54.466Z,40.3
2019-01-12T02:23:54.549Z,40.9
2019-01-12T02:24:59.873Z,40.3
2019-01-12T02:25:54.458Z,39.6
2019-01-12T02:26:54.553Z,39
2019-01-12T02:27:54.488Z,38.6
2019-01-12T02:28:54.482Z,37.4
2019-01-12T02:29:54.474Z,36.2
2019-01-12T02:30:54.528Z,35.4
2019-01-12T02:31:54.468Z,34.9
2019-01-12T02:32:54.486Z,34.5
2019-01-12T02:33:54.522Z,33.6
2019-01-12T02:34:54.481Z,32
2019-01-12T02:35:54.480Z,31.5
2019-01-12T02:36:54.469Z,31.7
2019-01-12T02:37:54.535Z,32.1
2019-01-12T02:38:54.458Z,33.1
2019-01-12T02:39:54.482Z,34.1
2019-01-12T02:40:54.535Z,35.2
2019-01-12T02:41:54.463Z,36.4
2019-01-12T02:42:54.495Z,37
2019-01-12T02:43:54.480Z,37.6
2019-01-12T02:44:54.535Z,38
2019-01-12T02:45:54.453Z,37.9
2019-01-12T02:46:54.471Z,37.4
2019-01-12T02:47:54.526Z,36.1
2019-01-12T02:48:54.474Z,36.3
2019-01-12T02:49:54.482Z,36
2019-01-12T02:50:54.478Z,35.9
2019-01-12T02:51:54.524Z,35.7
2019-01-12T02:52:54.441Z,35.8
2019-01-12T02:53:54.464Z,36.1
2019-01-12T02:54:54.481Z,36.1
2019-01-12T02:55:54.525Z,36.7
2019-01-12T02:56:54.519Z,37.4
2019-01-12T02:57:54.473Z,37.6
2019-01-12T02:58:54.459Z,37.9
2019-01-12T02:59:54.454Z,37.9
2019-01-12T03:00:54.545Z,37.5
2019-01-12T03:01:54.536Z,37.6
2019-01-12T03:02:54.504Z,37.4
2019-01-12T03:03:54.502Z,37.5
2019-01-12T03:04:54.443Z,38.5
2019-01-12T03:05:54.539Z,38.9
2019-01-12T03:06:54.451Z,39.1
2019-01-12T03:07:54.463Z,39.9
2019-01-12T03:08:54.474Z,41.4
2019-01-12T03:09:54.447Z,42
2019-01-12T03:10:54.504Z,42.3
2019-01-12T03:11:54.461Z,42.9
2019-01-12T03:12:54.461Z,43.5
2019-01-12T03:13:54.478Z,43.6
2019-01-12T03:14:54.501Z,44.7
2019-01-12T03:15:54.448Z,46.1
2019-01-12T03:16:54.454Z,47.8
2019-01-12T03:17:54.575Z,48.5
2019-01-12T03:18:54.463Z,48.6
2019-01-12T03:19:54.444Z,49
2019-01-12T03:20:54.440Z,49.9
2019-01-12T03:21:54.526Z,50.7
2019-01-12T03:22:54.430Z,51.4
2019-01-12T03:23:54.445Z,51.7
2019-01-12T03:24:54.440Z,52
2019-01-12T03:25:54.426Z,51.7
2019-01-12T03:26:54.496Z,52.4
2019-01-12T03:27:54.460Z,52.1
2019-01-12T03:28:54.455Z,51.7
2019-01-12T03:29:54.452Z,51.4
2019-01-12T03:30:54.442Z,51
2019-01-12T03:31:54.526Z,50.6
2019-01-12T03:32:54.456Z,51.4
2019-01-12T03:33:54.446Z,51.1
2019-01-12T03:34:54.454Z,50.5
2019-01-12T03:35:54.455Z,50.9
2019-01-12T03:36:54.484Z,50.8
2019-01-12T03:37:54.461Z,50.4
2019-01-12T03:38:54.437Z,50.7
2019-01-12T03:39:54.510Z,50.9
2019-01-12T03:40:54.508Z,50.9
2019-01-12T03:41:54.460Z,51.2
2019-01-12T03:42:54.424Z,51
2019-01-12T03:43:54.428Z,51.2
2019-01-12T03:44:54.432Z,51
2019-01-12T03:45:54.506Z,51.2
2019-01-12T03:46:54.421Z,51
2019-01-12T03:47:54.483Z,51.2
2019-01-12T03:48:54.443Z,51.9
2019-01-12T03:49:54.454Z,51.9
2019-01-12T03:50:54.451Z,51.4
2019-01-12T03:51:54.494Z,50.7
2019-01-12T03:52:54.417Z,50.3
2019-01-12T03:53:54.484Z,50.2
2019-01-12T03:54:54.496Z,49.8
2019-01-12T03:55:54.437Z,50.1
2019-01-12T03:56:54.437Z,50.2
2019-01-12T03:57:54.446Z,50.1
2019-01-12T03:58:54.479Z,49.7
2019-01-12T03:59:54.441Z,49.2
2019-01-12T04:00:54.446Z,48.9
2019-01-12T04:01:54.441Z,48.7
2019-01-12T04:02:54.487Z,48.3
2019-01-12T04:03:54.504Z,47.6
2019-01-12T04:04:54.403Z,47.1
2019-01-12T04:05:54.434Z,46.7
2019-01-12T04:06:54.422Z,45.8
2019-01-12T04:07:54.431Z,45.1
2019-01-12T04:08:54.476Z,44.5
2019-01-12T04:09:54.397Z,43.3
2019-01-12T04:10:54.430Z,41.9
2019-01-12T04:11:54.433Z,40.5
2019-01-12T04:12:54.439Z,39.1
2019-01-12T04:13:54.470Z,38
2019-01-12T04:14:54.479Z,36.9
2019-01-12T04:15:54.471Z,35.8
2019-01-12T04:16:54.408Z,35.5
2019-01-12T04:17:54.418Z,34.9
2019-01-12T04:18:54.464Z,34.5
2019-01-12T04:19:54.434Z,33.9
2019-01-12T04:20:54.481Z,32.7
2019-01-12T04:21:54.476Z,32.1
2019-01-12T04:22:54.423Z,31.4
2019-01-12T04:23:54.406Z,31.1
2019-01-12T04:24:54.476Z,31.4
2019-01-12T04:25:54.419Z,31.4
2019-01-12T04:26:54.412Z,31.4
2019-01-12T04:27:54.473Z,31.7
2019-01-12T04:28:54.413Z,31.6
2019-01-12T04:29:54.470Z,31.8
2019-01-12T04:30:54.424Z,32.2
2019-01-12T04:31:54.414Z,32.4
2019-01-12T04:32:54.471Z,32
2019-01-12T04:33:54.479Z,31.9
2019-01-12T04:34:54.449Z,31.4
2019-01-12T04:35:54.401Z,30.7
2019-01-12T04:36:54.409Z,30.5
2019-01-12T04:37:54.493Z,30.1
2019-01-12T04:38:54.404Z,30.2
2019-01-12T04:39:54.420Z,30.8
2019-01-12T04:40:54.408Z,30.7
2019-01-12T04:41:54.460Z,30.5
2019-01-12T04:42:54.406Z,30.4
2019-01-12T04:43:54.463Z,29.8
2019-01-12T04:44:54.396Z,29.3
2019-01-12T04:45:54.409Z,29.3
2019-01-12T04:46:54.426Z,28.2
2019-01-12T04:47:54.398Z,28.1
2019-01-12T04:48:54.494Z,28
2019-01-12T04:49:54.394Z,27.8
2019-01-12T04:50:54.418Z,28
2019-01-12T04:51:54.399Z,28.1
2019-01-12T04:52:54.402Z,27.9
2019-01-12T04:53:54.481Z,27.8
2019-01-12T04:54:54.413Z,27.5
2019-01-12T04:55:54.397Z,27.8
2019-01-12T04:56:54.484Z,28
2019-01-12T04:57:54.416Z,27.9
2019-01-12T04:58:54.391Z,27.9
2019-01-12T04:59:54.405Z,27.2
2019-01-12T05:00:54.478Z,27.3
2019-01-12T05:01:54.457Z,27.7
2019-01-12T05:02:54.403Z,27.9
2019-01-12T05:03:54.395Z,28.3
2019-01-12T05:04:54.448Z,28.6
2019-01-12T05:05:54.384Z,28.9
2019-01-12T05:06:54.454Z,29.4
2019-01-12T05:07:54.479Z,29.7
2019-01-12T05:08:54.388Z,30
2019-01-12T05:09:54.373Z,30.2
2019-01-12T05:10:54.399Z,30.2
2019-01-12T05:11:54.403Z,30.2
2019-01-12T05:12:54.473Z,30.2
2019-01-12T05:13:54.467Z,30.2
2019-01-12T05:14:54.371Z,30
2019-01-12T05:15:54.382Z,29.8
2019-01-12T05:16:54.382Z,29.2
2019-01-12T05:17:54.458Z,29.2
2019-01-12T05:18:54.385Z,29.3
2019-01-12T05:19:54.376Z,29.7
2019-01-12T05:20:54.448Z,29.8
2019-01-12T05:21:54.387Z,29.9
2019-01-12T05:22:54.379Z,29.9
2019-01-12T05:23:54.380Z,29.7
2019-01-12T05:24:54.376Z,29.6
2019-01-12T05:25:54.433Z,29.1
2019-01-12T05:26:54.374Z,28.3
2019-01-12T05:27:54.393Z,28.1
2019-01-12T05:28:54.377Z,27.6
2019-01-12T05:29:54.400Z,27.1
2019-01-12T05:30:54.458Z,26.8
2019-01-12T05:31:54.378Z,26
2019-01-12T05:32:54.403Z,25.7
2019-01-12T05:33:54.377Z,25.1
2019-01-12T05:34:54.398Z,24.7
2019-01-12T05:35:54.448Z,24.2
2019-01-12T05:36:54.431Z,22.8
2019-01-12T05:37:54.439Z,21.8
2019-01-12T05:38:54.374Z,20.6
2019-01-12T05:39:54.370Z,19.3
2019-01-12T05:40:54.374Z,18.3
2019-01-12T05:41:54.403Z,17.4
2019-01-12T05:42:54.406Z,16.4
2019-01-12T05:43:54.370Z,15.8
2019-01-12T05:44:54.390Z,15.3
2019-01-12T05:45:54.366Z,14.6
2019-01-12T05:46:54.371Z,14.1
2019-01-12T05:47:54.413Z,14.3
2019-01-12T05:48:54.371Z,14
2019-01-12T05:49:54.372Z,13.6
2019-01-12T05:50:54.365Z,13.5
2019-01-12T05:51:54.358Z,13.4
2019-01-12T05:52:54.357Z,13.5
2019-01-12T05:53:54.452Z,13.2
2019-01-12T05:54:54.359Z,13.1
2019-01-12T05:55:57.180Z,13.3
2019-01-12T05:56:54.359Z,13.3
2019-01-12T05:57:54.434Z,13.1
2019-01-12T05:58:54.420Z,14
2019-01-12T05:59:54.355Z,13.9
2019-01-12T06:00:54.366Z,14.1
2019-01-12T06:01:54.436Z,14.2
2019-01-12T06:02:54.380Z,14.9
2019-01-12T06:03:54.367Z,15.6
2019-01-12T06:04:54.437Z,16.9
2019-01-12T06:05:54.375Z,18.2
2019-01-12T06:06:54.376Z,19.2
2019-01-12T06:07:54.374Z,20
2019-01-12T06:08:54.424Z,20.3
2019-01-12T06:09:54.337Z,20.6
2019-01-12T06:10:54.364Z,20.7
2019-01-12T06:11:54.371Z,19.9
2019-01-12T06:12:54.405Z,19.3
2019-01-12T06:13:54.373Z,18.3
2019-01-12T06:14:54.352Z,17.4
2019-01-12T06:15:54.349Z,16.8
2019-01-12T06:16:54.353Z,16.3
2019-01-12T06:17:54.406Z,15.8
2019-01-12T06:18:54.369Z,15
2019-01-12T06:19:54.370Z,14.5
2019-01-12T06:20:54.343Z,14.2
2019-01-12T06:21:54.403Z,14.1
2019-01-12T06:22:54.363Z,13.9
2019-01-12T06:23:54.350Z,13.7
2019-01-12T06:24:54.368Z,13.2
2019-01-12T06:25:54.396Z,13
2019-01-12T06:26:54.435Z,13
2019-01-12T06:27:54.409Z,13
2019-01-12T06:28:54.346Z,12.9
2019-01-12T06:29:54.372Z,13.4
2019-01-12T06:30:54.364Z,13.3
2019-01-12T06:31:54.418Z,13.6
2019-01-12T06:32:54.337Z,13.5
2019-01-12T06:33:54.340Z,14.6
2019-01-12T06:34:54.367Z,15.4
2019-01-12T06:35:54.363Z,15.7
2019-01-12T06:36:54.389Z,16.5
2019-01-12T06:37:54.403Z,16.6
2019-01-12T06:38:54.356Z,17.1
2019-01-12T06:39:54.357Z,17.1
2019-01-12T06:40:54.357Z,17.2
2019-01-12T06:41:54.401Z,17.4
2019-01-12T06:42:54.335Z,17.1
2019-01-12T06:43:54.358Z,16.9
2019-01-12T06:44:54.399Z,16.9
2019-01-12T06:45:54.356Z,16.5
2019-01-12T06:46:54.400Z,16.4
2019-01-12T06:47:54.322Z,15.8
2019-01-12T06:48:54.408Z,15.2
2019-01-12T06:49:54.344Z,14.6
2019-01-12T06:50:54.351Z,15.1
2019-01-12T06:51:54.355Z,15
2019-01-12T06:52:54.414Z,15.5
2019-01-12T06:53:54.317Z,14.9
2019-01-12T06:54:54.387Z,15.3
2019-01-12T06:55:54.417Z,15.1
2019-01-12T06:56:54.351Z,15.2
2019-01-12T06:57:54.347Z,15
2019-01-12T06:58:54.318Z,15.2
2019-01-12T06:59:54.399Z,14.6
2019-01-12T07:00:54.352Z,15
2019-01-12T07:01:54.337Z,15.4
2019-01-12T07:02:54.333Z,15.6
2019-01-12T07:03:54.340Z,15.4
2019-01-12T07:04:54.401Z,16.1
2019-01-12T07:05:54.328Z,15.9
2019-01-12T07:06:54.349Z,16.1
2019-01-12T07:07:54.353Z,16.3
2019-01-12T07:08:54.345Z,16.5
2019-01-12T07:09:54.380Z,16.5
2019-01-12T07:10:54.408Z,16.4
2019-01-12T07:11:54.322Z,16.2
2019-01-12T07:12:54.318Z,17.2
2019-01-12T07:13:54.326Z,17.6
2019-01-12T07:14:54.936Z,17.8
2019-01-12T07:15:54.368Z,18.6
2019-01-12T07:16:54.316Z,18.8
2019-01-12T07:17:54.409Z,18.5
2019-01-12T07:18:54.337Z,18.8
2019-01-12T07:19:54.401Z,18.4
2019-01-12T07:20:54.363Z,18.2
2019-01-12T07:21:54.607Z,18.2
2019-01-12T07:22:54.340Z,18.5
2019-01-12T07:23:54.462Z,18.4
2019-01-12T07:24:54.395Z,18.5
2019-01-12T07:25:54.380Z,19.2
2019-01-12T07:26:54.385Z,19.6
2019-01-12T07:27:54.452Z,20.3
2019-01-12T07:28:54.290Z,21.1
2019-01-12T07:29:54.492Z,21.9
2019-01-12T07:30:54.318Z,22.6
2019-01-12T07:31:54.312Z,23
2019-01-12T07:32:54.401Z,23
2019-01-12T07:33:54.302Z,22.9
2019-01-12T07:34:54.347Z,23.1
2019-01-12T07:35:54.310Z,22.8
2019-01-12T07:36:54.854Z,23.3
2019-01-12T07:37:56.062Z,22.9
2019-01-12T07:38:54.325Z,22.7
2019-01-12T07:39:54.295Z,21.6
2019-01-12T07:40:54.312Z,21.7
2019-01-12T07:41:54.382Z,20.6
2019-01-12T07:42:54.292Z,20.1
2019-01-12T07:43:54.494Z,19.7
2019-01-12T07:44:54.813Z,19.9
2019-01-12T07:45:54.288Z,20.3
2019-01-12T07:46:54.309Z,20
2019-01-12T07:47:54.285Z,20
2019-01-12T07:48:54.536Z,19.8
2019-01-12T07:49:54.413Z,19.3
2019-01-12T07:50:54.372Z,19.2
2019-01-12T07:51:54.314Z,18.7
2019-01-12T07:52:54.355Z,18.7
2019-01-12T07:53:54.325Z,18.4
2019-01-12T07:54:54.303Z,18
2019-01-12T07:55:54.314Z,17.3
2019-01-12T07:56:54.310Z,17.2
2019-01-12T07:57:54.381Z,16.4
2019-01-12T07:58:54.296Z,16.1
2019-01-12T07:59:54.297Z,16.8
2019-01-12T08:00:54.315Z,16.8
2019-01-12T08:01:54.293Z,17.2
2019-01-12T08:02:54.310Z,17.7
2019-01-12T08:03:54.309Z,18.3
2019-01-12T08:04:54.306Z,17.9
2019-01-12T08:05:54.373Z,17.6
2019-01-12T08:06:54.326Z,17.5
2019-01-12T08:07:54.311Z,17.3
2019-01-12T08:08:54.309Z,16.8
2019-01-12T08:09:54.301Z,16.5
2019-01-12T08:10:54.449Z,16.9
2019-01-12T08:11:54.297Z,16.8
2019-01-12T08:12:54.382Z,16.8
2019-01-12T08:13:54.298Z,16.8
2019-01-12T08:14:54.334Z,16.4
2019-01-12T08:15:54.371Z,16
2019-01-12T08:16:54.306Z,15.9
2019-01-12T08:17:54.317Z,15.5
2019-01-12T08:18:54.305Z,15.3
2019-01-12T08:19:54.295Z,15.7
2019-01-12T08:20:54.418Z,15.2
2019-01-12T08:21:54.309Z,14.9
2019-01-12T08:22:54.298Z,15.4
2019-01-12T08:23:54.316Z,15.4
2019-01-12T08:24:54.371Z,15.9
2019-01-12T08:25:54.274Z,16.7
2019-01-12T08:26:54.311Z,17.5
2019-01-12T08:27:54.311Z,17.7
2019-01-12T08:28:54.295Z,19.6
2019-01-12T08:29:54.359Z,20.6
2019-01-12T08:30:54.296Z,21.7
2019-01-12T08:31:54.310Z,22.8
2019-01-12T08:32:54.350Z,23.6
2019-01-12T08:33:54.280Z,24
2019-01-12T08:34:54.277Z,24.4
2019-01-12T08:35:54.273Z,24.5
2019-01-12T08:36:54.285Z,24.6
2019-01-12T08:37:54.354Z,25.2
2019-01-12T08:38:54.287Z,26.4
2019-01-12T08:39:54.279Z,27.7
2019-01-12T08:40:54.298Z,28
2019-01-12T08:41:54.292Z,28.1
2019-01-12T08:42:54.350Z,27.7
2019-01-12T08:43:55.336Z,26.4
2019-01-12T08:44:54.279Z,25.3
2019-01-12T08:45:54.300Z,25.2
2019-01-12T08:46:54.302Z,24.8
2019-01-12T08:47:54.355Z,23.8
2019-01-12T08:48:54.289Z,22.6
2019-01-12T08:49:54.371Z,21.7
2019-01-12T08:50:54.294Z,21.2
2019-01-12T08:51:54.332Z,21
2019-01-12T08:52:54.284Z,20.1
2019-01-12T08:53:54.351Z,19.3
2019-01-12T08:54:54.300Z,19.4
2019-01-12T08:55:54.270Z,19.3
2019-01-12T08:56:54.297Z,19.6
2019-01-12T08:57:54.348Z,19.7
2019-01-12T08:58:54.264Z,20
2019-01-12T08:59:54.280Z,20.4
2019-01-12T09:00:54.293Z,20.4
2019-01-12T09:01:54.362Z,19.6
2019-01-12T09:02:54.298Z,19.7
2019-01-12T09:03:54.279Z,19.1
2019-01-12T09:04:54.299Z,19.3
2019-01-12T09:05:54.288Z,18.1
2019-01-12T09:06:54.360Z,17.4
2019-01-12T09:07:54.270Z,17.1
2019-01-12T09:08:54.365Z,17.3
2019-01-12T09:09:54.263Z,17.5
2019-01-12T09:10:54.292Z,17.7
2019-01-12T09:11:54.336Z,17.4
2019-01-12T09:12:54.397Z,16.9
2019-01-12T09:13:54.286Z,16.3
2019-01-12T09:14:54.324Z,16.9
2019-01-12T09:15:54.353Z,17.8
2019-01-12T09:16:54.869Z,18.4
2019-01-12T09:17:54.275Z,18.6
2019-01-12T09:18:54.284Z,18.3
2019-01-12T09:19:54.323Z,19.3
2019-01-12T09:20:54.270Z,20.2
2019-01-12T09:21:54.283Z,20.5
2019-01-12T09:22:54.278Z,20.6
2019-01-12T09:23:54.349Z,20.5
2019-01-12T09:24:54.285Z,20
2019-01-12T09:25:54.272Z,20.1
2019-01-12T09:26:54.278Z,20.4
2019-01-12T09:27:54.330Z,20.4
2019-01-12T09:28:54.268Z,19.8
2019-01-12T09:29:54.338Z,20.1
2019-01-12T09:30:54.258Z,21.1
2019-01-12T09:31:54.276Z,21.1
2019-01-12T09:32:54.286Z,20.8
2019-01-12T09:33:54.357Z,22
2019-01-12T09:34:54.267Z,22.1
2019-01-12T09:35:54.255Z,21.5
2019-01-12T09:36:54.240Z,22.4
2019-01-12T09:37:54.280Z,22.4
2019-01-12T09:38:54.374Z,22.7
2019-01-12T09:39:54.278Z,22.5
2019-01-12T09:40:54.312Z,22.3
2019-01-12T09:41:54.332Z,22.8
2019-01-12T09:42:54.268Z,23.4
2019-01-12T09:43:54.343Z,23.2
2019-01-12T09:44:54.280Z,23.8
2019-01-12T09:45:54.343Z,24
2019-01-12T09:46:54.356Z,24
2019-01-12T09:47:54.250Z,23.7
2019-01-12T09:48:54.271Z,23.2
2019-01-12T09:49:54.341Z,22.6
2019-01-12T09:50:54.258Z,22.7
2019-01-12T09:51:54.277Z,21.6
2019-01-12T09:52:54.457Z,21.5
2019-01-12T09:53:54.238Z,21.3
2019-01-12T09:54:54.333Z,21.4
2019-01-12T09:55:54.256Z,21.4
2019-01-12T09:56:54.348Z,22.2
2019-01-12T09:57:54.781Z,22.6
2019-01-12T09:58:54.325Z,22.1
2019-01-12T09:59:54.329Z,21.7
2019-01-12T10:00:54.391Z,20.9
2019-01-12T10:01:54.296Z,20.2
2019-01-12T10:02:54.338Z,19.9
2019-01-12T10:03:54.341Z,20.3
2019-01-12T10:04:54.391Z,20.1
2019-01-12T10:05:55.243Z,19.7
2019-01-12T10:06:54.292Z,20
2019-01-12T10:07:54.287Z,19.8
2019-01-12T10:08:54.983Z,19.4
2019-01-12T10:09:54.295Z,19.8
2019-01-12T10:10:54.300Z,19.7
2019-01-12T10:11:54.315Z,21.5
2019-01-12T10:12:54.275Z,22.1
2019-01-12T10:13:54.433Z,21.9
2019-01-12T10:14:54.428Z,20.9
2019-01-12T10:15:54.430Z,20.4
2019-01-12T10:16:54.525Z,20.9
2019-01-12T10:17:54.394Z,21.6
2019-01-12T10:18:54.333Z,22.5
2019-01-12T10:19:54.300Z,22.4
2019-01-12T10:20:54.281Z,22.1
2019-01-12T10:21:54.440Z,21.6
2019-01-12T10:22:54.292Z,22
2019-01-12T10:23:54.330Z,22
2019-01-12T10:24:54.384Z,21.9
2019-01-12T10:25:54.352Z,21.6
2019-01-12T10:26:58.441Z,22
2019-01-12T10:27:54.319Z,22
2019-01-12T10:28:54.294Z,21.7
2019-01-12T10:29:54.498Z,21.3
2019-01-12T10:30:54.299Z,21.5
2019-01-12T10:31:54.287Z,22
2019-01-12T10:32:54.389Z,22
2019-01-12T10:33:55.926Z,21.5
2019-01-12T10:34:54.321Z,21.6
2019-01-12T10:35:54.255Z,20.5
2019-01-12T10:36:54.312Z,21.1
2019-01-12T10:37:54.369Z,22
2019-01-12T10:38:54.370Z,21.4
2019-01-12T10:39:54.319Z,20.8
2019-01-12T10:40:54.293Z,20.1
2019-01-12T10:41:54.277Z,19.5
2019-01-12T10:42:54.342Z,19
2019-01-12T10:43:54.307Z,19.5
2019-01-12T10:44:54.250Z,19.3
2019-01-12T10:45:54.223Z,18.7
2019-01-12T10:46:54.251Z,18.3
2019-01-12T10:47:54.309Z,18.4
2019-01-12T10:48:54.258Z,19
2019-01-12T10:49:54.297Z,18.7
2019-01-12T10:50:54.235Z,19.4
2019-01-12T10:51:54.244Z,21.4
2019-01-12T10:52:54.240Z,21.8
2019-01-12T10:53:54.251Z,22.7
2019-01-12T10:54:54.304Z,22.4
2019-01-12T10:55:54.230Z,21.9
2019-01-12T10:56:54.241Z,21.4
2019-01-12T10:57:54.288Z,21.1
2019-01-12T10:58:54.232Z,21.1
2019-01-12T10:59:54.286Z,20.4
2019-01-12T11:00:54.220Z,19.9
2019-01-12T11:01:54.287Z,20.1
2019-01-12T11:02:54.319Z,20.8
2019-01-12T11:03:54.229Z,20.6
2019-01-12T11:04:54.235Z,20.1
2019-01-12T11:05:54.225Z,19.7
2019-01-12T11:06:54.242Z,19.4
2019-01-12T11:07:54.309Z,19.9
2019-01-12T11:08:54.214Z,20.1
2019-01-12T11:09:54.217Z,19.2
2019-01-12T11:10:54.236Z,19.4
2019-01-12T11:11:54.232Z,19.6
2019-01-12T11:12:54.297Z,19.5
2019-01-12T11:13:54.287Z,20
2019-01-12T11:14:54.198Z,20.6
2019-01-12T11:15:54.242Z,20.8
2019-01-12T11:16:54.240Z,20.5
2019-01-12T11:17:54.282Z,20.6
2019-01-12T11:18:54.298Z,21.2
2019-01-12T11:19:54.230Z,22.2
2019-01-12T11:20:54.226Z,23.9
2019-01-12T11:21:54.240Z,24.8
2019-01-12T11:22:54.226Z,25.4
2019-01-12T11:23:54.297Z,26.2
2019-01-12T11:24:54.234Z,25.5
2019-01-12T11:25:54.272Z,24.6
2019-01-12T11:26:54.236Z,24.8
2019-01-12T11:27:54.221Z,25.1
2019-01-12T11:28:54.220Z,24.6
2019-01-12T11:29:54.209Z,25.2
2019-01-12T11:30:54.217Z,25.2
2019-01-12T11:31:54.238Z,25.2
2019-01-12T11:32:54.297Z,25.3
2019-01-12T11:33:54.211Z,27
2019-01-12T11:34:54.231Z,28
2019-01-12T11:35:54.209Z,28.3
2019-01-12T11:36:54.280Z,27.6
2019-01-12T11:37:54.233Z,27.1
2019-01-12T11:38:54.215Z,27.2
2019-01-12T11:39:54.218Z,26.7
2019-01-12T11:40:54.207Z,26.9
2019-01-12T11:41:54.267Z,27.4
2019-01-12T11:42:54.215Z,27.7
2019-01-12T11:43:54.221Z,27.9
2019-01-12T11:44:54.209Z,28.7
2019-01-12T11:45:54.209Z,29.2
2019-01-12T11:46:54.295Z,28.8
2019-01-12T11:47:54.283Z,29.9
2019-01-12T11:48:54.214Z,30.6
2019-01-12T11:49:54.281Z,30.9
2019-01-12T11:50:54.208Z,30.8
2019-01-12T11:51:54.227Z,30.3
2019-01-12T11:52:54.284Z,30.4
2019-01-12T11:53:54.226Z,31
2019-01-12T11:54:54.218Z,31.3
2019-01-12T11:55:54.219Z,30.2
2019-01-12T11:56:54.214Z,30.2
2019-01-12T11:57:54.280Z,30.7
2019-01-12T11:58:54.222Z,31.7
2019-01-12T11:59:54.209Z,32.1
2019-01-12T12:00:54.232Z,33.2
2019-01-12T12:01:54.279Z,33.2
2019-01-12T12:02:54.220Z,33.2
2019-01-12T12:03:54.202Z,33.5
2019-01-12T12:04:54.220Z,33
2019-01-12T12:05:54.305Z,32.6
2019-01-12T12:06:54.194Z,32.5
2019-01-12T12:07:54.212Z,32.7
2019-01-12T12:08:54.188Z,32.6
2019-01-12T12:09:54.190Z,33.5
2019-01-12T12:10:54.256Z,33.7
2019-01-12T12:11:54.216Z,34.5
2019-01-12T12:12:54.281Z,33.8
2019-01-12T12:13:54.212Z,33.7
2019-01-12T12:14:54.198Z,33.8
2019-01-12T12:15:54.219Z,33
2019-01-12T12:16:54.257Z,32.5
2019-01-12T12:17:54.213Z,32.2
2019-01-12T12:18:54.267Z,32.9
2019-01-12T12:19:54.199Z,33.1
2019-01-12T12:20:54.184Z,32.2
2019-01-12T12:21:54.208Z,32.3
2019-01-12T12:22:54.252Z,31.6
2019-01-12T12:23:54.215Z,31.5
2019-01-12T12:24:54.262Z,31.3
2019-01-12T12:25:54.196Z,31.4
2019-01-12T12:26:54.181Z,31.7
2019-01-12T12:27:55.847Z,32.4
2019-01-12T12:28:54.232Z,32.1
2019-01-12T12:29:54.215Z,33
2019-01-12T12:30:54.178Z,32.4
2019-01-12T12:31:54.205Z,32.5
2019-01-12T12:32:54.184Z,32.4
2019-01-12T12:33:54.197Z,32.8
2019-01-12T12:34:54.266Z,33.4
2019-01-12T12:35:54.273Z,33.8
2019-01-12T12:36:54.168Z,33.7
2019-01-12T12:37:54.180Z,33.9
2019-01-12T12:38:54.210Z,34.1
2019-01-12T12:39:54.256Z,33.7
2019-01-12T12:40:54.189Z,33.7
2019-01-12T12:41:54.189Z,34.2
2019-01-12T12:42:55.286Z,34.2
2019-01-12T12:43:54.244Z,33.5
2019-01-12T12:44:54.257Z,34.2
2019-01-12T12:45:54.194Z,34.8
2019-01-12T12:46:54.230Z,34.7
2019-01-12T12:47:54.163Z,35.3
2019-01-12T12:48:54.186Z,35.3
2019-01-12T12:49:54.204Z,35.4
2019-01-12T12:50:54.270Z,35.4
2019-01-12T12:51:58.644Z,2.8
2019-01-12T12:52:58.667Z,4.8
2019-01-12T12:53:58.675Z,7.1
2019-01-12T12:54:58.676Z,10.3
2019-01-12T12:55:58.724Z,12.4
2019-01-12T12:56:58.672Z,14.5
2019-01-12T12:58:00.915Z,16.5
2019-01-12T12:58:58.643Z,18.1
2019-01-12T12:59:58.663Z,18.9
2019-01-12T13:00:58.676Z,20.7
2019-01-12T13:01:58.658Z,21.8
2019-01-12T13:02:58.806Z,22.2
2019-01-12T13:03:58.652Z,23.2
2019-01-12T13:04:58.658Z,23.8
2019-01-12T13:05:58.652Z,24.9
2019-01-12T13:06:58.786Z,25.3
2019-01-12T13:07:58.800Z,27
2019-01-12T13:08:58.641Z,27.7
2019-01-12T13:09:58.639Z,28.7
2019-01-12T13:10:58.674Z,29.4
2019-01-12T13:11:58.666Z,31.5
2019-01-12T13:12:58.729Z,33.5
2019-01-12T13:13:58.671Z,34.9
2019-01-12T13:14:58.657Z,35.3
2019-01-12T13:15:58.715Z,35.3
2019-01-12T13:16:58.668Z,36
2019-01-12T13:17:58.663Z,36.9
2019-01-12T13:18:58.648Z,37.5
2019-01-12T13:19:58.726Z,38.8
2019-01-12T13:20:58.657Z,39.5
2019-01-12T13:21:58.712Z,39.8
2019-01-12T13:22:58.714Z,40.1
2019-01-12T13:24:00.221Z,40.7